sensor_id;sensor_type;location;lat;lon;timestamp;P1;durP1;ratioP1;P2;durP2;ratioP2
57893;SDS011;43710;47.460;19.034;2022-08-19T04:01:57;14.73;;;10.40;;
57893;SDS011;43710;47.460;19.034;2022-08-19T04:05:01;14.57;;;10.93;;
57893;SDS011;43710;47.460;19.034;2022-08-19T04:08:03;12.27;;;9.55;;
57893;SDS011;43710;47.460;19.034;2022-08-19T04:11:15;13.15;;;9.82;;
57893;SDS011;43710;47.460;19.034;2022-08-19T04:14:20;14.00;;;10.18;;
57893;SDS011;43710;47.460;19.034;2022-08-19T04:17:26;12.45;;;10.18;;
57893;SDS011;43710;47.460;19.034;2022-08-19T04:20:28;11.77;;;10.32;;
57893;SDS011;43710;47.460;19.034;2022-08-19T04:23:30;12.82;;;10.05;;
57893;SDS011;43710;47.460;19.034;2022-08-19T04:26:35;17.25;;;10.68;;
57893;SDS011;43710;47.460;19.034;2022-08-19T04:29:38;12.93;;;9.60;;
57893;SDS011;43710;47.460;19.034;2022-08-19T04:32:42;14.93;;;9.75;;
57893;SDS011;43710;47.460;19.034;2022-08-19T04:35:46;11.75;;;9.57;;
57893;SDS011;43710;47.460;19.034;2022-08-19T04:38:52;10.13;;;9.02;;
57893;SDS011;43710;47.460;19.034;2022-08-19T04:41:56;12.18;;;9.93;;
57893;SDS011;43710;47.460;19.034;2022-08-19T04:45:17;11.55;;;10.13;;
57893;SDS011;43710;47.460;19.034;2022-08-19T04:48:23;11.95;;;9.73;;
57893;SDS011;43710;47.460;19.034;2022-08-19T04:51:28;12.82;;;10.10;;
57893;SDS011;43710;47.460;19.034;2022-08-19T04:54:33;12.50;;;9.77;;
57893;SDS011;43710;47.460;19.034;2022-08-19T04:57:40;18.67;;;10.48;;
57893;SDS011;43710;47.460;19.034;2022-08-19T05:00:42;14.85;;;9.50;;
57893;SDS011;43710;47.460;19.034;2022-08-19T05:03:45;10.55;;;9.52;;
57893;SDS011;43710;47.460;19.034;2022-08-19T05:06:48;16.50;;;9.93;;
57893;SDS011;43710;47.460;19.034;2022-08-19T05:09:50;12.02;;;9.48;;
57893;SDS011;43710;47.460;19.034;2022-08-19T05:13:00;12.98;;;9.10;;
57893;SDS011;43710;47.460;19.034;2022-08-19T05:16:02;10.57;;;9.25;;
57893;SDS011;43710;47.460;19.034;2022-08-19T05:19:04;14.32;;;9.55;;
57893;SDS011;43710;47.460;19.034;2022-08-19T05:22:25;10.82;;;8.73;;
57893;SDS011;43710;47.460;19.034;2022-08-19T05:25:34;12.07;;;9.50;;
57893;SDS011;43710;47.460;19.034;2022-08-19T05:28:42;13.93;;;9.52;;
57893;SDS011;43710;47.460;19.034;2022-08-19T05:31:44;10.20;;;8.07;;
57893;SDS011;43710;47.460;19.034;2022-08-19T05:34:47;12.85;;;9.20;;
57893;SDS011;43710;47.460;19.034;2022-08-19T05:37:50;11.93;;;9.07;;
57893;SDS011;43710;47.460;19.034;2022-08-19T05:40:59;10.60;;;9.25;;
57893;SDS011;43710;47.460;19.034;2022-08-19T05:44:03;11.23;;;9.32;;
57893;SDS011;43710;47.460;19.034;2022-08-19T05:47:08;11.32;;;8.52;;
57893;SDS011;43710;47.460;19.034;2022-08-19T05:50:10;12.45;;;9.00;;
57893;SDS011;43710;47.460;19.034;2022-08-19T05:53:12;12.15;;;9.18;;
57893;SDS011;43710;47.460;19.034;2022-08-19T05:56:18;13.40;;;8.80;;
57893;SDS011;43710;47.460;19.034;2022-08-19T05:59:21;13.10;;;9.93;;
57893;SDS011;43710;47.460;19.034;2022-08-19T06:02:26;15.07;;;9.00;;
57893;SDS011;43710;47.460;19.034;2022-08-19T06:05:30;11.57;;;9.18;;
57893;SDS011;43710;47.460;19.034;2022-08-19T06:08:47;10.88;;;8.63;;
57893;SDS011;43710;47.460;19.034;2022-08-19T06:11:53;10.25;;;8.95;;
57893;SDS011;43710;47.460;19.034;2022-08-19T06:14:57;11.32;;;8.27;;
57893;SDS011;43710;47.460;19.034;2022-08-19T06:18:02;17.25;;;9.23;;
57893;SDS011;43710;47.460;19.034;2022-08-19T06:21:05;13.13;;;8.38;;
57893;SDS011;43710;47.460;19.034;2022-08-19T06:24:08;13.73;;;9.00;;
57893;SDS011;43710;47.460;19.034;2022-08-19T06:27:11;12.77;;;8.50;;
57893;SDS011;43710;47.460;19.034;2022-08-19T06:30:14;13.55;;;8.73;;
57893;SDS011;43710;47.460;19.034;2022-08-19T06:33:16;16.48;;;8.55;;
57893;SDS011;43710;47.460;19.034;2022-08-19T06:36:20;13.25;;;8.82;;
57893;SDS011;43710;47.460;19.034;2022-08-19T06:39:33;14.15;;;8.02;;
57893;SDS011;43710;47.460;19.034;2022-08-19T06:42:37;23.75;;;9.38;;
57893;SDS011;43710;47.460;19.034;2022-08-19T06:45:56;16.58;;;8.23;;
57893;SDS011;43710;47.460;19.034;2022-08-19T06:49:00;15.93;;;8.63;;
57893;SDS011;43710;47.460;19.034;2022-08-19T06:52:02;10.93;;;7.97;;
57893;SDS011;43710;47.460;19.034;2022-08-19T06:55:05;13.52;;;7.35;;
57893;SDS011;43710;47.460;19.034;2022-08-19T06:58:08;12.07;;;8.15;;
57893;SDS011;43710;47.460;19.034;2022-08-19T07:01:11;11.90;;;8.20;;
57893;SDS011;43710;47.460;19.034;2022-08-19T07:04:14;12.77;;;7.80;;
57893;SDS011;43710;47.460;19.034;2022-08-19T07:07:20;14.75;;;7.75;;
57893;SDS011;43710;47.460;19.034;2022-08-19T07:10:24;11.35;;;7.90;;
57893;SDS011;43710;47.460;19.034;2022-08-19T07:13:27;16.08;;;8.20;;
57893;SDS011;43710;47.460;19.034;2022-08-19T07:16:29;11.52;;;8.15;;
57893;SDS011;43710;47.460;19.034;2022-08-19T07:19:32;23.38;;;8.05;;
57893;SDS011;43710;47.460;19.034;2022-08-19T07:22:34;14.75;;;7.70;;
57893;SDS011;43710;47.460;19.034;2022-08-19T07:25:37;19.45;;;7.82;;
57893;SDS011;43710;47.460;19.034;2022-08-19T07:28:42;23.63;;;8.00;;
57893;SDS011;43710;47.460;19.034;2022-08-19T07:31:52;15.13;;;7.40;;
57893;SDS011;43710;47.460;19.034;2022-08-19T07:34:58;12.20;;;7.68;;
57893;SDS011;43710;47.460;19.034;2022-08-19T07:38:02;12.55;;;7.87;;
57893;SDS011;43710;47.460;19.034;2022-08-19T07:41:05;26.45;;;8.27;;
57893;SDS011;43710;47.460;19.034;2022-08-19T07:44:08;15.13;;;7.75;;
57893;SDS011;43710;47.460;19.034;2022-08-19T07:47:11;13.70;;;7.65;;
57893;SDS011;43710;47.460;19.034;2022-08-19T07:50:34;15.27;;;7.47;;
57893;SDS011;43710;47.460;19.034;2022-08-19T07:53:37;8.90;;;6.72;;
57893;SDS011;43710;47.460;19.034;2022-08-19T07:56:41;30.02;;;7.90;;
57893;SDS011;43710;47.460;19.034;2022-08-19T07:59:43;12.15;;;7.55;;
57893;SDS011;43710;47.460;19.034;2022-08-19T08:02:45;19.00;;;7.45;;
57893;SDS011;43710;47.460;19.034;2022-08-19T08:05:48;43.10;;;8.48;;
57893;SDS011;43710;47.460;19.034;2022-08-19T08:09:09;37.47;;;9.13;;
57893;SDS011;43710;47.460;19.034;2022-08-19T08:12:19;16.98;;;7.70;;
57893;SDS011;43710;47.460;19.034;2022-08-19T08:15:35;12.63;;;8.13;;
57893;SDS011;43710;47.460;19.034;2022-08-19T08:18:44;20.27;;;8.40;;
57893;SDS011;43710;47.460;19.034;2022-08-19T08:21:55;14.98;;;7.40;;
57893;SDS011;43710;47.460;19.034;2022-08-19T08:25:00;11.70;;;7.20;;
57893;SDS011;43710;47.460;19.034;2022-08-19T08:28:07;18.02;;;7.32;;
57893;SDS011;43710;47.460;19.034;2022-08-19T08:31:18;75.55;;;10.93;;
57893;SDS011;43710;47.460;19.034;2022-08-19T08:34:21;10.93;;;6.82;;
57893;SDS011;43710;47.460;19.034;2022-08-19T08:37:24;13.15;;;6.57;;
57893;SDS011;43710;47.460;19.034;2022-08-19T08:40:28;9.40;;;6.50;;
57893;SDS011;43710;47.460;19.034;2022-08-19T08:46:43;9.27;;;6.97;;
57893;SDS011;43710;47.460;19.034;2022-08-19T08:53:02;10.10;;;6.62;;
57893;SDS011;43710;47.460;19.034;2022-08-19T08:56:08;24.98;;;7.35;;
57893;SDS011;43710;47.460;19.034;2022-08-19T08:59:21;12.35;;;6.43;;
57893;SDS011;43710;47.460;19.034;2022-08-19T09:02:30;18.52;;;6.87;;
57893;SDS011;43710;47.460;19.034;2022-08-19T09:05:48;16.58;;;7.20;;
57893;SDS011;43710;47.460;19.034;2022-08-19T09:15:40;17.45;;;7.45;;
57893;SDS011;43710;47.460;19.034;2022-08-19T09:18:49;12.10;;;7.45;;
57893;SDS011;43710;47.460;19.034;2022-08-19T09:21:55;13.48;;;6.97;;
57893;SDS011;43710;47.460;19.034;2022-08-19T09:24:58;12.77;;;6.97;;
57893;SDS011;43710;47.460;19.034;2022-08-19T09:28:01;12.50;;;6.85;;
57893;SDS011;43710;47.460;19.034;2022-08-19T09:31:25;15.85;;;7.72;;
57893;SDS011;43710;47.460;19.034;2022-08-19T09:34:28;12.85;;;7.20;;
57893;SDS011;43710;47.460;19.034;2022-08-19T09:37:38;10.95;;;6.82;;
57893;SDS011;43710;47.460;19.034;2022-08-19T09:40:41;8.85;;;6.45;;
57893;SDS011;43710;47.460;19.034;2022-08-19T09:43:44;13.05;;;7.00;;
57893;SDS011;43710;47.460;19.034;2022-08-19T09:46:49;14.10;;;7.15;;
57893;SDS011;43710;47.460;19.034;2022-08-19T09:49:52;13.68;;;6.72;;
57893;SDS011;43710;47.460;19.034;2022-08-19T09:52:54;13.73;;;6.87;;
57893;SDS011;43710;47.460;19.034;2022-08-19T09:55:58;9.05;;;6.53;;
57893;SDS011;43710;47.460;19.034;2022-08-19T09:59:05;11.90;;;6.75;;
57893;SDS011;43710;47.460;19.034;2022-08-19T10:02:07;12.48;;;7.10;;
57893;SDS011;43710;47.460;19.034;2022-08-19T10:08:34;10.88;;;6.30;;
57893;SDS011;43710;47.460;19.034;2022-08-19T10:11:42;10.27;;;6.50;;
57893;SDS011;43710;47.460;19.034;2022-08-19T10:14:55;9.90;;;6.62;;
57893;SDS011;43710;47.460;19.034;2022-08-19T10:17:58;8.68;;;6.68;;
57893;SDS011;43710;47.460;19.034;2022-08-19T10:21:08;11.35;;;6.43;;
57893;SDS011;43710;47.460;19.034;2022-08-19T10:24:13;8.80;;;6.65;;
57893;SDS011;43710;47.460;19.034;2022-08-19T10:27:19;11.88;;;6.68;;
57893;SDS011;43710;47.460;19.034;2022-08-19T10:30:21;8.98;;;6.37;;
57893;SDS011;43710;47.460;19.034;2022-08-19T10:33:25;15.75;;;6.40;;
57893;SDS011;43710;47.460;19.034;2022-08-19T10:36:49;11.38;;;6.47;;
57893;SDS011;43710;47.460;19.034;2022-08-19T10:39:57;9.88;;;6.45;;
57893;SDS011;43710;47.460;19.034;2022-08-19T10:43:00;10.60;;;6.47;;
57893;SDS011;43710;47.460;19.034;2022-08-19T10:46:02;9.88;;;6.32;;
57893;SDS011;43710;47.460;19.034;2022-08-19T10:49:10;10.75;;;6.62;;
57893;SDS011;43710;47.460;19.034;2022-08-19T10:52:13;7.62;;;6.82;;
57893;SDS011;43710;47.460;19.034;2022-08-19T10:55:33;9.98;;;6.20;;
57893;SDS011;43710;47.460;19.034;2022-08-19T10:58:55;9.52;;;6.18;;
57893;SDS011;43710;47.460;19.034;2022-08-19T11:01:59;10.15;;;6.60;;
57893;SDS011;43710;47.460;19.034;2022-08-19T11:05:02;10.23;;;6.87;;
57893;SDS011;43710;47.460;19.034;2022-08-19T11:08:14;9.68;;;6.68;;
57893;SDS011;43710;47.460;19.034;2022-08-19T11:11:24;10.30;;;7.47;;
57893;SDS011;43710;47.460;19.034;2022-08-19T11:14:28;10.63;;;7.33;;
57893;SDS011;43710;47.460;19.034;2022-08-19T11:17:34;8.80;;;7.12;;
57893;SDS011;43710;47.460;19.034;2022-08-19T11:20:37;12.13;;;7.00;;
57893;SDS011;43710;47.460;19.034;2022-08-19T11:23:40;8.82;;;6.97;;
57893;SDS011;43710;47.460;19.034;2022-08-19T11:26:43;11.73;;;7.55;;
57893;SDS011;43710;47.460;19.034;2022-08-19T11:29:46;12.52;;;6.60;;
57893;SDS011;43710;47.460;19.034;2022-08-19T11:32:48;12.05;;;7.43;;
57893;SDS011;43710;47.460;19.034;2022-08-19T11:35:51;7.78;;;6.72;;
57893;SDS011;43710;47.460;19.034;2022-08-19T11:38:54;9.93;;;6.70;;
57893;SDS011;43710;47.460;19.034;2022-08-19T11:41:59;12.57;;;5.97;;
57893;SDS011;43710;47.460;19.034;2022-08-19T11:45:03;8.38;;;5.65;;
57893;SDS011;43710;47.460;19.034;2022-08-19T11:48:06;12.43;;;6.68;;
57893;SDS011;43710;47.460;19.034;2022-08-19T11:51:09;9.82;;;6.47;;
57893;SDS011;43710;47.460;19.034;2022-08-19T11:54:14;13.85;;;7.68;;
57893;SDS011;43710;47.460;19.034;2022-08-19T11:57:18;10.02;;;7.18;;
57893;SDS011;43710;47.460;19.034;2022-08-19T12:00:21;12.77;;;7.55;;
57893;SDS011;43710;47.460;19.034;2022-08-19T12:03:23;11.73;;;7.95;;
57893;SDS011;43710;47.460;19.034;2022-08-19T12:06:29;14.45;;;9.93;;
57893;SDS011;43710;47.460;19.034;2022-08-19T12:09:33;21.58;;;10.13;;
57893;SDS011;43710;47.460;19.034;2022-08-19T12:12:36;15.35;;;10.20;;
57893;SDS011;43710;47.460;19.034;2022-08-19T12:15:42;14.82;;;10.20;;
57893;SDS011;43710;47.460;19.034;2022-08-19T12:18:45;14.82;;;9.55;;
57893;SDS011;43710;47.460;19.034;2022-08-19T12:21:51;14.13;;;9.85;;
57893;SDS011;43710;47.460;19.034;2022-08-19T12:24:54;18.52;;;9.73;;
57893;SDS011;43710;47.460;19.034;2022-08-19T12:27:57;15.02;;;9.45;;
57893;SDS011;43710;47.460;19.034;2022-08-19T12:31:00;11.75;;;9.65;;
57893;SDS011;43710;47.460;19.034;2022-08-19T12:34:02;19.95;;;10.55;;
57893;SDS011;43710;47.460;19.034;2022-08-19T12:37:05;15.77;;;10.20;;
57893;SDS011;43710;47.460;19.034;2022-08-19T12:40:08;14.48;;;11.27;;
57893;SDS011;43710;47.460;19.034;2022-08-19T12:43:11;17.42;;;12.68;;
57893;SDS011;43710;47.460;19.034;2022-08-19T12:46:13;15.85;;;13.02;;
57893;SDS011;43710;47.460;19.034;2022-08-19T12:49:18;19.15;;;13.93;;
57893;SDS011;43710;47.460;19.034;2022-08-19T12:52:40;17.12;;;13.52;;
57893;SDS011;43710;47.460;19.034;2022-08-19T12:55:45;20.95;;;13.90;;
57893;SDS011;43710;47.460;19.034;2022-08-19T12:58:47;17.95;;;14.60;;
57893;SDS011;43710;47.460;19.034;2022-08-19T13:01:53;20.05;;;14.75;;
57893;SDS011;43710;47.460;19.034;2022-08-19T13:04:56;21.87;;;14.80;;
57893;SDS011;43710;47.460;19.034;2022-08-19T13:07:58;17.27;;;13.60;;
57893;SDS011;43710;47.460;19.034;2022-08-19T13:11:09;15.80;;;12.77;;
57893;SDS011;43710;47.460;19.034;2022-08-19T13:14:13;20.67;;;11.10;;
57893;SDS011;43710;47.460;19.034;2022-08-19T13:17:15;12.82;;;7.50;;
57893;SDS011;43710;47.460;19.034;2022-08-19T13:20:18;17.87;;;7.25;;
57893;SDS011;43710;47.460;19.034;2022-08-19T13:23:22;11.10;;;5.97;;
57893;SDS011;43710;47.460;19.034;2022-08-19T13:26:24;11.75;;;5.30;;
57893;SDS011;43710;47.460;19.034;2022-08-19T13:29:26;11.60;;;5.53;;
57893;SDS011;43710;47.460;19.034;2022-08-19T13:32:47;16.10;;;5.82;;
57893;SDS011;43710;47.460;19.034;2022-08-19T13:36:08;12.63;;;5.32;;
57893;SDS011;43710;47.460;19.034;2022-08-19T13:39:11;18.02;;;5.55;;
57893;SDS011;43710;47.460;19.034;2022-08-19T13:42:14;12.00;;;5.50;;
57893;SDS011;43710;47.460;19.034;2022-08-19T13:45:17;17.50;;;5.65;;
57893;SDS011;43710;47.460;19.034;2022-08-19T13:48:22;17.40;;;5.72;;
57893;SDS011;43710;47.460;19.034;2022-08-19T13:51:25;11.20;;;5.57;;
57893;SDS011;43710;47.460;19.034;2022-08-19T13:54:27;36.20;;;6.93;;
57893;SDS011;43710;47.460;19.034;2022-08-19T13:57:30;26.50;;;6.85;;
57893;SDS011;43710;47.460;19.034;2022-08-19T14:00:35;31.12;;;5.82;;
57893;SDS011;43710;47.460;19.034;2022-08-19T14:03:40;46.03;;;7.32;;
57893;SDS011;43710;47.460;19.034;2022-08-19T14:06:42;35.95;;;6.32;;
57893;SDS011;43710;47.460;19.034;2022-08-19T14:09:45;17.25;;;5.50;;
57893;SDS011;43710;47.460;19.034;2022-08-19T14:12:52;26.42;;;5.68;;
57893;SDS011;43710;47.460;19.034;2022-08-19T14:15:57;24.98;;;5.00;;
57893;SDS011;43710;47.460;19.034;2022-08-19T14:19:00;27.42;;;5.68;;
57893;SDS011;43710;47.460;19.034;2022-08-19T14:22:03;24.45;;;5.70;;
57893;SDS011;43710;47.460;19.034;2022-08-19T14:25:07;19.33;;;5.00;;
57893;SDS011;43710;47.460;19.034;2022-08-19T14:28:12;24.10;;;5.12;;
57893;SDS011;43710;47.460;19.034;2022-08-19T14:31:14;18.40;;;5.55;;
57893;SDS011;43710;47.460;19.034;2022-08-19T14:34:20;18.25;;;4.65;;
57893;SDS011;43710;47.460;19.034;2022-08-19T14:37:23;13.98;;;4.95;;
